createdAt,value
2022-11-05T00:00:37.867Z,0.00
2022-11-05T00:01:37.913Z,0.00
2022-11-05T00:02:37.829Z,0.00
2022-11-05T00:03:37.860Z,0.00
2022-11-05T00:04:37.795Z,0.00
2022-11-05T00:05:37.794Z,0.00
2022-11-05T00:06:37.859Z,0.00
2022-11-05T00:07:37.779Z,0.00
2022-11-05T00:08:37.772Z,0.00
2022-11-05T00:09:37.755Z,0.00
2022-11-05T00:10:37.815Z,0.00
2022-11-05T00:11:37.752Z,0.00
2022-11-05T00:12:37.708Z,0.00
2022-11-05T00:13:44.206Z,0.00
2022-11-05T00:14:37.694Z,0.00
2022-11-05T00:15:37.679Z,0.00
2022-11-05T00:16:37.699Z,0.00
2022-11-05T00:17:37.688Z,0.00
2022-11-05T00:18:37.641Z,0.00
2022-11-05T00:19:37.635Z,0.00
2022-11-05T00:20:37.627Z,0.00
2022-11-05T00:21:37.604Z,0.00
2022-11-05T00:22:37.603Z,0.00
2022-11-05T00:23:37.598Z,0.00
2022-11-05T00:24:37.612Z,0.00
2022-11-05T00:25:37.566Z,0.00
2022-11-05T00:26:37.557Z,0.00
2022-11-05T00:27:37.566Z,0.00
2022-11-05T00:28:37.546Z,0.00
2022-11-05T00:29:37.522Z,0.00
2022-11-05T00:30:37.522Z,0.00
2022-11-05T00:31:37.500Z,0.00
2022-11-05T00:32:37.480Z,0.00
2022-11-05T00:33:37.483Z,0.00
2022-11-05T00:34:37.469Z,0.00
2022-11-05T00:35:37.445Z,0.00
2022-11-05T00:36:37.436Z,0.00
2022-11-05T00:37:37.424Z,0.00
2022-11-05T00:38:37.453Z,0.00
2022-11-05T00:39:37.409Z,0.00
2022-11-05T00:40:37.406Z,0.00
2022-11-05T00:41:37.450Z,0.00
2022-11-05T00:42:43.918Z,0.00
2022-11-05T00:43:37.387Z,0.00
2022-11-05T00:44:37.359Z,0.00
2022-11-05T00:45:37.345Z,0.00
2022-11-05T00:46:37.323Z,0.00
2022-11-05T00:47:37.373Z,0.00
2022-11-05T00:48:37.315Z,0.00
2022-11-05T00:49:37.302Z,0.00
2022-11-05T00:50:37.282Z,0.00
2022-11-05T00:51:37.273Z,0.00
2022-11-05T00:52:37.259Z,0.00
2022-11-05T00:53:37.271Z,0.00
2022-11-05T00:54:37.237Z,0.00
2022-11-05T00:55:37.230Z,0.00
2022-11-05T00:56:37.264Z,0.00
2022-11-05T00:57:37.207Z,0.00
2022-11-05T00:58:37.204Z,0.00
2022-11-05T00:59:37.207Z,0.00
2022-11-05T01:00:37.172Z,0.00
2022-11-05T01:01:37.300Z,0.00
2022-11-05T01:02:37.313Z,0.00
2022-11-05T01:03:37.159Z,0.00
2022-11-05T01:04:37.144Z,0.00
2022-11-05T01:05:37.142Z,0.00
2022-11-05T01:06:37.114Z,0.00
2022-11-05T01:07:37.096Z,0.00
2022-11-05T01:08:37.094Z,0.00
2022-11-05T01:09:37.083Z,0.00
2022-11-05T01:10:37.077Z,0.00
2022-11-05T01:11:37.305Z,0.00
2022-11-05T01:12:43.618Z,0.00
2022-11-05T01:13:37.054Z,0.00
2022-11-05T01:14:37.045Z,0.00
2022-11-05T01:15:37.015Z,0.00
2022-11-05T01:16:36.998Z,0.00
2022-11-05T01:17:37.064Z,0.00
2022-11-05T01:18:36.999Z,0.00
2022-11-05T01:19:36.971Z,0.00
2022-11-05T01:20:36.959Z,0.00
2022-11-05T01:21:36.952Z,0.00
2022-11-05T01:22:36.943Z,0.00
2022-11-05T01:23:36.937Z,0.00
2022-11-05T01:24:36.921Z,0.00
2022-11-05T01:25:36.899Z,0.00
2022-11-05T01:26:36.900Z,0.00
2022-11-05T01:27:36.899Z,0.00
2022-11-05T01:28:36.878Z,0.00
2022-11-05T01:29:36.864Z,0.00
2022-11-05T01:30:36.861Z,0.00
2022-11-05T01:31:36.846Z,0.00
2022-11-05T01:32:43.572Z,0.00
2022-11-05T01:33:36.823Z,0.00
2022-11-05T01:34:36.906Z,0.00
2022-11-05T01:35:36.796Z,0.00
2022-11-05T01:36:36.795Z,0.00
2022-11-05T01:37:36.784Z,0.00
2022-11-05T01:38:36.782Z,0.00
2022-11-05T01:39:36.745Z,0.00
2022-11-05T01:40:36.790Z,0.00
2022-11-05T01:41:36.719Z,0.00
2022-11-05T01:42:36.717Z,0.00
2022-11-05T01:43:36.740Z,0.00
2022-11-05T01:44:36.689Z,0.00
2022-11-05T01:45:36.732Z,0.00
2022-11-05T01:46:36.681Z,0.00
2022-11-05T01:47:36.672Z,0.00
2022-11-05T01:48:36.652Z,0.00
2022-11-05T01:49:36.649Z,0.00
2022-11-05T01:50:36.667Z,0.00
2022-11-05T01:51:36.627Z,0.00
2022-11-05T01:52:36.636Z,0.00
2022-11-05T01:53:36.630Z,0.00
2022-11-05T01:54:36.608Z,0.00
2022-11-05T01:55:36.595Z,0.00
2022-11-05T01:56:36.587Z,0.00
2022-11-05T01:57:36.566Z,0.00
2022-11-05T01:58:36.549Z,0.00
2022-11-05T01:59:36.525Z,0.00
2022-11-05T02:00:36.534Z,0.00
2022-11-05T02:01:36.626Z,0.00
2022-11-05T02:02:36.595Z,0.00
2022-11-05T02:03:36.534Z,0.00
2022-11-05T02:04:36.515Z,0.00
2022-11-05T02:05:36.474Z,0.00
2022-11-05T02:06:36.491Z,0.00
2022-11-05T02:07:36.464Z,0.00
2022-11-05T02:08:36.465Z,0.00
2022-11-05T02:09:36.445Z,0.00
2022-11-05T02:10:36.490Z,0.00
2022-11-05T02:11:36.424Z,0.00
2022-11-05T02:12:36.410Z,0.00
2022-11-05T02:13:36.384Z,0.00
2022-11-05T02:14:36.412Z,0.00
2022-11-05T02:15:36.383Z,0.00
2022-11-05T02:16:36.370Z,0.00
2022-11-05T02:17:36.366Z,0.00
2022-11-05T02:18:36.358Z,0.00
2022-11-05T02:19:36.322Z,0.00
2022-11-05T02:20:36.328Z,0.00
2022-11-05T02:21:36.311Z,0.00
2022-11-05T02:22:36.315Z,0.00
2022-11-05T02:23:36.298Z,0.00
2022-11-05T02:24:36.297Z,0.00
2022-11-05T02:25:36.276Z,0.00
2022-11-05T02:26:36.264Z,0.00
2022-11-05T02:27:36.286Z,0.00
2022-11-05T02:28:36.278Z,0.00
2022-11-05T02:29:36.225Z,0.00
2022-11-05T02:30:36.205Z,0.00
2022-11-05T02:31:36.234Z,0.00
2022-11-05T02:32:36.180Z,0.00
2022-11-05T02:33:36.184Z,0.00
2022-11-05T02:34:36.173Z,0.00
2022-11-05T02:35:36.148Z,0.00
2022-11-05T02:36:36.152Z,0.00
2022-11-05T02:37:36.140Z,0.00
2022-11-05T02:38:36.141Z,0.00
2022-11-05T02:39:36.110Z,0.00
2022-11-05T02:40:36.086Z,0.00
2022-11-05T02:41:36.074Z,0.00
2022-11-05T02:42:42.595Z,0.00
2022-11-05T02:43:36.078Z,0.00
2022-11-05T02:44:36.093Z,0.00
2022-11-05T02:45:36.118Z,0.00
2022-11-05T02:46:36.866Z,0.00
2022-11-05T02:47:36.049Z,0.00
2022-11-05T02:48:36.030Z,0.00
2022-11-05T02:49:36.011Z,0.00
2022-11-05T02:50:36.028Z,0.00
2022-11-05T02:51:36.008Z,0.00
2022-11-05T02:52:35.951Z,0.00
2022-11-05T02:53:35.968Z,0.00
2022-11-05T02:54:35.951Z,0.00
2022-11-05T02:55:35.933Z,0.00
2022-11-05T02:56:35.951Z,0.00
2022-11-05T02:57:35.924Z,0.00
2022-11-05T02:58:35.899Z,0.00
2022-11-05T02:59:35.894Z,0.00
2022-11-05T03:00:35.893Z,0.00
2022-11-05T03:01:36.074Z,0.00
2022-11-05T03:02:36.005Z,0.00
2022-11-05T03:03:35.856Z,0.00
2022-11-05T03:04:35.889Z,0.00
2022-11-05T03:05:35.855Z,0.00
2022-11-05T03:06:35.830Z,0.00
2022-11-05T03:07:35.801Z,0.00
2022-11-05T03:08:35.844Z,0.00
2022-11-05T03:09:35.804Z,0.00
2022-11-05T03:10:35.795Z,0.00
2022-11-05T03:11:35.773Z,0.00
2022-11-05T03:12:35.775Z,0.00
2022-11-05T03:13:35.750Z,0.00
2022-11-05T03:14:35.735Z,0.00
2022-11-05T03:15:35.722Z,0.00
2022-11-05T03:16:35.758Z,0.00
2022-11-05T03:17:35.684Z,0.00
2022-11-05T03:18:35.699Z,0.00
2022-11-05T03:19:35.696Z,0.00
2022-11-05T03:20:35.675Z,0.00
2022-11-05T03:21:35.693Z,0.00
2022-11-05T03:22:35.641Z,0.00
2022-11-05T03:23:35.656Z,0.00
2022-11-05T03:24:35.633Z,0.00
2022-11-05T03:25:35.618Z,0.00
2022-11-05T03:26:35.617Z,0.00
2022-11-05T03:27:35.584Z,0.00
2022-11-05T03:28:35.571Z,0.00
2022-11-05T03:29:35.555Z,0.00
2022-11-05T03:30:35.568Z,0.00
2022-11-05T03:31:35.552Z,0.00
2022-11-05T03:32:35.570Z,0.00
2022-11-05T03:33:42.027Z,0.00
2022-11-05T03:34:35.498Z,0.00
2022-11-05T03:35:35.499Z,0.00
2022-11-05T03:36:35.467Z,0.00
2022-11-05T03:37:35.534Z,0.00
2022-11-05T03:38:35.471Z,0.00
2022-11-05T03:39:35.487Z,0.00
2022-11-05T03:40:35.446Z,0.00
2022-11-05T03:41:35.424Z,0.00
2022-11-05T03:42:35.412Z,0.00
2022-11-05T03:43:35.409Z,0.00
2022-11-05T03:44:35.396Z,0.00
2022-11-05T03:45:35.395Z,0.00
2022-11-05T03:46:35.371Z,0.00
2022-11-05T03:47:35.425Z,0.00
2022-11-05T03:48:35.392Z,0.00
2022-11-05T03:49:35.329Z,0.00
2022-11-05T03:50:40.936Z,0.00
2022-11-05T03:51:35.340Z,0.00
2022-11-05T03:52:35.318Z,0.00
2022-11-05T03:53:35.283Z,0.00
2022-11-05T03:54:35.274Z,0.00
2022-11-05T03:55:35.266Z,0.00
2022-11-05T03:56:35.284Z,0.00
2022-11-05T03:57:35.274Z,0.00
2022-11-05T03:58:35.257Z,0.00
2022-11-05T03:59:35.229Z,0.00
2022-11-05T04:00:35.220Z,0.00
2022-11-05T04:01:35.329Z,0.00
2022-11-05T04:02:35.337Z,0.00
2022-11-05T04:03:35.190Z,0.00
2022-11-05T04:04:35.169Z,0.00
2022-11-05T04:05:35.196Z,0.00
2022-11-05T04:06:35.138Z,0.00
2022-11-05T04:07:35.140Z,0.00
2022-11-05T04:08:35.155Z,0.00
2022-11-05T04:09:35.121Z,0.00
2022-11-05T04:10:35.104Z,0.00
2022-11-05T04:11:35.080Z,0.00
2022-11-05T04:12:35.073Z,0.00
2022-11-05T04:13:35.094Z,0.00
2022-11-05T04:14:35.064Z,0.00
2022-11-05T04:15:35.071Z,0.00
2022-11-05T04:16:35.045Z,0.00
2022-11-05T04:17:35.036Z,0.00
2022-11-05T04:18:35.081Z,0.00
2022-11-05T04:19:35.020Z,0.00
2022-11-05T04:20:34.993Z,0.00
2022-11-05T04:21:35.002Z,0.00
2022-11-05T04:22:41.489Z,0.00
2022-11-05T04:23:34.965Z,0.00
2022-11-05T04:24:34.958Z,0.00
2022-11-05T04:25:34.967Z,0.00
2022-11-05T04:26:34.940Z,0.00
2022-11-05T04:27:34.916Z,0.00
2022-11-05T04:28:34.900Z,0.00
2022-11-05T04:29:34.900Z,0.00
2022-11-05T04:30:34.883Z,0.00
2022-11-05T04:31:34.882Z,0.00
2022-11-05T04:32:34.876Z,0.00
2022-11-05T04:33:34.861Z,0.00
2022-11-05T04:34:34.850Z,0.00
2022-11-05T04:35:34.821Z,0.00
2022-11-05T04:36:34.817Z,0.00
2022-11-05T04:37:34.804Z,0.00
2022-11-05T04:38:34.813Z,0.00
2022-11-05T04:39:34.776Z,0.00
2022-11-05T04:40:34.765Z,0.00
2022-11-05T04:41:34.764Z,0.00
2022-11-05T04:42:34.750Z,0.00
2022-11-05T04:43:34.753Z,0.00
2022-11-05T04:44:34.729Z,0.00
2022-11-05T04:45:34.729Z,0.00
2022-11-05T04:46:34.697Z,0.00
2022-11-05T04:47:34.697Z,0.00
2022-11-05T04:48:34.685Z,0.00
2022-11-05T04:49:34.731Z,0.00
2022-11-05T04:50:34.669Z,0.00
2022-11-05T04:51:34.655Z,0.00
2022-11-05T04:52:34.654Z,0.00
2022-11-05T04:53:34.630Z,0.00
2022-11-05T04:54:34.621Z,0.00
2022-11-05T04:55:34.611Z,0.00
2022-11-05T04:56:34.603Z,0.00
2022-11-05T04:57:34.610Z,0.00
2022-11-05T04:58:34.574Z,0.00
2022-11-05T04:59:34.566Z,0.00
2022-11-05T05:00:34.640Z,0.00
2022-11-05T05:01:34.629Z,0.00
2022-11-05T05:02:34.533Z,0.00
2022-11-05T05:03:34.529Z,0.00
2022-11-05T05:04:34.504Z,0.00
2022-11-05T05:05:34.518Z,0.00
2022-11-05T05:06:34.511Z,0.00
2022-11-05T05:07:34.510Z,0.00
2022-11-05T05:08:34.493Z,0.00
2022-11-05T05:09:34.455Z,0.00
2022-11-05T05:10:34.446Z,0.00
2022-11-05T05:11:34.432Z,0.00
2022-11-05T05:12:34.434Z,0.00
2022-11-05T05:13:34.409Z,0.00
2022-11-05T05:14:34.416Z,0.00
2022-11-05T05:15:34.400Z,0.00
2022-11-05T05:16:34.368Z,0.00
2022-11-05T05:17:34.362Z,0.00
2022-11-05T05:18:34.349Z,0.00
2022-11-05T05:19:34.382Z,0.00
2022-11-05T05:20:34.365Z,0.00
2022-11-05T05:21:34.315Z,0.00
2022-11-05T05:22:40.849Z,0.00
2022-11-05T05:23:34.303Z,0.00
2022-11-05T05:24:34.303Z,0.00
2022-11-05T05:25:34.283Z,0.00
2022-11-05T05:26:34.284Z,0.00
2022-11-05T05:27:34.271Z,0.00
2022-11-05T05:28:34.251Z,0.00
2022-11-05T05:29:34.226Z,0.00
2022-11-05T05:30:34.244Z,0.00
2022-11-05T05:31:34.220Z,0.00
2022-11-05T05:32:34.209Z,0.00
2022-11-05T05:33:34.182Z,0.00
2022-11-05T05:34:34.184Z,0.00
2022-11-05T05:35:34.179Z,0.00
2022-11-05T05:36:34.180Z,0.00
2022-11-05T05:37:34.161Z,0.00
2022-11-05T05:38:34.142Z,0.00
2022-11-05T05:39:34.118Z,0.00
2022-11-05T05:40:34.137Z,0.00
2022-11-05T05:41:34.114Z,0.00
2022-11-05T05:42:37.579Z,0.00
2022-11-05T05:43:34.079Z,0.00
2022-11-05T05:44:34.073Z,0.00
2022-11-05T05:45:34.060Z,0.00
2022-11-05T05:46:34.066Z,0.00
2022-11-05T05:47:34.043Z,0.00
2022-11-05T05:48:34.032Z,0.00
2022-11-05T05:49:34.005Z,0.00
2022-11-05T05:50:34.000Z,0.00
2022-11-05T05:51:34.047Z,0.00
2022-11-05T05:52:40.487Z,0.00
2022-11-05T05:53:33.974Z,0.00
2022-11-05T05:54:38.319Z,0.00
2022-11-05T05:55:33.958Z,0.00
2022-11-05T05:56:33.962Z,0.00
2022-11-05T05:57:33.922Z,0.00
2022-11-05T05:58:33.915Z,4.00
2022-11-05T05:59:33.913Z,4.00
2022-11-05T06:00:33.910Z,0.00
2022-11-05T06:01:34.007Z,4.00
2022-11-05T06:02:33.953Z,8.00
2022-11-05T06:03:33.861Z,4.00
2022-11-05T06:04:33.842Z,4.00
2022-11-05T06:05:33.840Z,8.00
2022-11-05T06:06:33.828Z,8.00
2022-11-05T06:07:37.220Z,12.00
2022-11-05T06:08:33.799Z,12.00
2022-11-05T06:09:33.788Z,16.00
2022-11-05T06:10:33.832Z,20.00
2022-11-05T06:11:33.765Z,24.00
2022-11-05T06:12:33.774Z,24.00
2022-11-05T06:13:33.765Z,32.00
2022-11-05T06:14:33.747Z,36.00
2022-11-05T06:15:36.118Z,40.00
2022-11-05T06:16:33.743Z,44.00
2022-11-05T06:17:33.707Z,52.00
2022-11-05T06:18:33.706Z,64.00
2022-11-05T06:19:33.681Z,68.00
2022-11-05T06:20:33.682Z,80.00
2022-11-05T06:21:33.674Z,96.00
2022-11-05T06:22:33.695Z,104.00
2022-11-05T06:23:33.646Z,112.00
2022-11-05T06:24:33.621Z,124.00
2022-11-05T06:25:37.175Z,144.00
2022-11-05T06:26:33.617Z,168.00
2022-11-05T06:27:33.598Z,192.00
2022-11-05T06:28:33.596Z,212.00
2022-11-05T06:29:33.579Z,228.00
2022-11-05T06:30:33.558Z,256.00
2022-11-05T06:31:33.565Z,276.00
2022-11-05T06:32:33.536Z,300.00
2022-11-05T06:33:33.534Z,328.00
2022-11-05T06:34:33.531Z,356.00
2022-11-05T06:35:33.513Z,384.00
2022-11-05T06:36:33.509Z,396.00
2022-11-05T06:37:33.500Z,420.00
2022-11-05T06:38:33.505Z,440.00
2022-11-05T06:39:33.464Z,472.00
2022-11-05T06:40:33.466Z,508.00
2022-11-05T06:41:45.698Z,540.00
2022-11-05T06:42:33.442Z,568.00
2022-11-05T06:43:33.417Z,588.00
2022-11-05T06:44:33.413Z,612.00
2022-11-05T06:45:33.407Z,644.00
2022-11-05T06:46:33.384Z,672.00
2022-11-05T06:47:33.386Z,700.00
2022-11-05T06:48:33.385Z,732.00
2022-11-05T06:49:33.357Z,760.00
2022-11-05T06:50:33.337Z,796.00
2022-11-05T06:51:33.345Z,828.00
2022-11-05T06:52:38.327Z,860.00
2022-11-05T06:53:33.385Z,892.00
2022-11-05T06:54:33.303Z,924.00
2022-11-05T06:55:33.294Z,952.00
2022-11-05T06:56:33.271Z,984.00
2022-11-05T06:57:33.259Z,1020.00
2022-11-05T06:58:33.260Z,1064.00
2022-11-05T06:59:33.259Z,1104.00
2022-11-05T07:00:33.383Z,1140.00
2022-11-05T07:01:33.425Z,1180.00
2022-11-05T07:02:33.217Z,1220.00
2022-11-05T07:03:33.207Z,1256.00
2022-11-05T07:04:33.182Z,1296.00
2022-11-05T07:05:33.216Z,1336.00
2022-11-05T07:06:36.984Z,1372.00
2022-11-05T07:07:33.149Z,1420.00
2022-11-05T07:08:33.148Z,1460.00
2022-11-05T07:09:33.163Z,1484.00
2022-11-05T07:10:33.144Z,1528.00
2022-11-05T07:11:33.121Z,1616.00
2022-11-05T07:12:33.166Z,1732.00
2022-11-05T07:13:33.094Z,1892.00
2022-11-05T07:14:33.084Z,2032.00
2022-11-05T07:15:33.072Z,2140.00
2022-11-05T07:16:33.056Z,2140.00
2022-11-05T07:17:33.063Z,2040.00
2022-11-05T07:18:33.037Z,1920.00
2022-11-05T07:19:33.030Z,1844.00
2022-11-05T07:20:34.520Z,1756.00
2022-11-05T07:21:33.038Z,1772.00
2022-11-05T07:22:33.002Z,1756.00
2022-11-05T07:23:32.980Z,1676.00
2022-11-05T07:24:33.008Z,1656.00
2022-11-05T07:25:32.948Z,1744.00
2022-11-05T07:26:34.707Z,1680.00
2022-11-05T07:27:32.951Z,1692.00
2022-11-05T07:28:32.974Z,1720.00
2022-11-05T07:29:32.916Z,1748.00
2022-11-05T07:30:32.903Z,1820.00
2022-11-05T07:31:32.923Z,1812.00
2022-11-05T07:32:32.886Z,1852.00
2022-11-05T07:33:36.472Z,1936.00
2022-11-05T07:34:32.854Z,1976.00
2022-11-05T07:35:32.859Z,2064.00
2022-11-05T07:36:32.845Z,2132.00
2022-11-05T07:37:32.821Z,2236.00
2022-11-05T07:38:32.818Z,2296.00
2022-11-05T07:39:32.797Z,2352.00
2022-11-05T07:40:32.803Z,2632.00
2022-11-05T07:41:32.801Z,3180.00
2022-11-05T07:42:32.766Z,3108.00
2022-11-05T07:43:32.761Z,3136.00
2022-11-05T07:44:32.748Z,3088.00
2022-11-05T07:45:32.752Z,3036.00
2022-11-05T07:46:32.744Z,3120.00
2022-11-05T07:47:32.731Z,3328.00
2022-11-05T07:48:32.711Z,3372.00
2022-11-05T07:49:32.688Z,3576.00
2022-11-05T07:50:32.685Z,3356.00
2022-11-05T07:51:32.683Z,3648.00
2022-11-05T07:52:32.666Z,3828.00
2022-11-05T07:53:32.659Z,3612.00
2022-11-05T07:54:32.632Z,3848.00
2022-11-05T07:55:32.693Z,3908.00
2022-11-05T07:56:32.628Z,3980.00
2022-11-05T07:57:32.614Z,3992.00
2022-11-05T07:58:32.597Z,4200.00
2022-11-05T07:59:32.596Z,4408.00
2022-11-05T08:00:32.661Z,4120.00
2022-11-05T08:01:32.860Z,4068.00
2022-11-05T08:02:40.351Z,4060.00
2022-11-05T08:03:32.806Z,4136.00
2022-11-05T08:04:32.549Z,4840.00
2022-11-05T08:05:32.521Z,4504.00
2022-11-05T08:06:32.500Z,4700.00
2022-11-05T08:07:32.513Z,4768.00
2022-11-05T08:08:32.501Z,5360.00
2022-11-05T08:09:32.472Z,5232.00
2022-11-05T08:10:32.468Z,5400.00
2022-11-05T08:11:32.464Z,5420.00
2022-11-05T08:12:32.476Z,4132.00
2022-11-05T08:13:32.432Z,3876.00
2022-11-05T08:14:32.429Z,3500.00
2022-11-05T08:15:32.416Z,3384.00
2022-11-05T08:16:32.426Z,3664.00
2022-11-05T08:17:32.614Z,3668.00
2022-11-05T08:18:32.394Z,3616.00
2022-11-05T08:19:32.410Z,3600.00
2022-11-05T08:20:32.359Z,3640.00
2022-11-05T08:21:32.356Z,4096.00
2022-11-05T08:22:32.339Z,3652.00
2022-11-05T08:23:32.349Z,3296.00
2022-11-05T08:24:32.320Z,4324.00
2022-11-05T08:25:32.313Z,4380.00
2022-11-05T08:26:32.347Z,4744.00
2022-11-05T08:27:32.286Z,4776.00
2022-11-05T08:28:32.306Z,4636.00
2022-11-05T08:29:32.259Z,4828.00
2022-11-05T08:30:32.290Z,4708.00
2022-11-05T08:31:32.251Z,4640.00
2022-11-05T08:32:32.264Z,4784.00
2022-11-05T08:33:32.231Z,4788.00
2022-11-05T08:34:32.220Z,4644.00
2022-11-05T08:35:32.216Z,4840.00
2022-11-05T08:36:32.184Z,4744.00
2022-11-05T08:37:32.220Z,4788.00
2022-11-05T08:38:32.198Z,4800.00
2022-11-05T08:39:32.156Z,4852.00
2022-11-05T08:40:32.148Z,4896.00
2022-11-05T08:41:32.130Z,5032.00
2022-11-05T08:42:38.675Z,5184.00
2022-11-05T08:43:32.110Z,5172.00
2022-11-05T08:44:32.086Z,5144.00
2022-11-05T08:45:32.073Z,5132.00
2022-11-05T08:46:32.083Z,5012.00
2022-11-05T08:47:32.065Z,5076.00
2022-11-05T08:48:32.063Z,5352.00
2022-11-05T08:49:32.054Z,5396.00
2022-11-05T08:50:32.058Z,5568.00
2022-11-05T08:51:32.008Z,6100.00
2022-11-05T08:52:32.020Z,6312.00
2022-11-05T08:53:31.994Z,6200.00
2022-11-05T08:54:32.030Z,6316.00
2022-11-05T08:55:31.962Z,6272.00
2022-11-05T08:56:31.982Z,6480.00
2022-11-05T08:57:32.005Z,6676.00
2022-11-05T08:58:31.960Z,6724.00
2022-11-05T08:59:31.958Z,6828.00
2022-11-05T09:00:31.922Z,6792.00
2022-11-05T09:01:32.037Z,6968.00
2022-11-05T09:02:31.940Z,7304.00
2022-11-05T09:03:31.874Z,7588.00
2022-11-05T09:04:31.913Z,7884.00
2022-11-05T09:05:31.867Z,8052.00
2022-11-05T09:06:31.851Z,8208.00
2022-11-05T09:07:31.846Z,8336.00
2022-11-05T09:08:31.841Z,8552.00
2022-11-05T09:09:31.821Z,8868.00
2022-11-05T09:10:31.812Z,9564.00
2022-11-05T09:11:56.881Z,11112.00
2022-11-05T09:12:31.780Z,12596.00
2022-11-05T09:13:31.841Z,12728.00
2022-11-05T09:14:31.758Z,12264.00
2022-11-05T09:15:31.797Z,11448.00
2022-11-05T09:16:31.837Z,11120.00
2022-11-05T09:17:31.729Z,10848.00
2022-11-05T09:18:31.723Z,11212.00
2022-11-05T09:19:31.698Z,11120.00
2022-11-05T09:20:31.696Z,11056.00
2022-11-05T09:21:31.693Z,6384.00
2022-11-05T09:22:31.673Z,10996.00
2022-11-05T09:23:31.671Z,11628.00
2022-11-05T09:24:31.638Z,13432.00
2022-11-05T09:25:31.650Z,14364.00
2022-11-05T09:26:31.629Z,12652.00
2022-11-05T09:27:31.606Z,10992.00
2022-11-05T09:28:31.657Z,7580.00
2022-11-05T09:29:31.592Z,11204.00
2022-11-05T09:30:31.589Z,11616.00
2022-11-05T09:31:31.574Z,11136.00
2022-11-05T09:32:38.075Z,7936.00
2022-11-05T09:33:31.575Z,7728.00
2022-11-05T09:34:31.538Z,10736.00
2022-11-05T09:35:31.550Z,10872.00
2022-11-05T09:36:31.518Z,11056.00
2022-11-05T09:37:31.536Z,11048.00
2022-11-05T09:38:31.498Z,11104.00
2022-11-05T09:39:31.488Z,11228.00
2022-11-05T09:40:31.471Z,11440.00
2022-11-05T09:41:31.465Z,11460.00
2022-11-05T09:42:31.448Z,11776.00
2022-11-05T09:43:32.096Z,12212.00
2022-11-05T09:44:31.431Z,12788.00
2022-11-05T09:45:31.426Z,12452.00
2022-11-05T09:46:31.420Z,12420.00
2022-11-05T09:47:31.395Z,12532.00
2022-11-05T09:48:31.413Z,12452.00
2022-11-05T09:49:31.394Z,12648.00
2022-11-05T09:50:31.367Z,12712.00
2022-11-05T09:51:31.341Z,12952.00
2022-11-05T09:52:31.337Z,13032.00
2022-11-05T09:53:31.324Z,13152.00
2022-11-05T09:54:31.319Z,13232.00
2022-11-05T09:55:31.345Z,13388.00
2022-11-05T09:56:31.293Z,13160.00
2022-11-05T09:57:31.280Z,12704.00
2022-11-05T09:58:31.284Z,6700.00
2022-11-05T09:59:31.293Z,10660.00
2022-11-05T10:00:31.247Z,8288.00
2022-11-05T10:01:31.347Z,8856.00
2022-11-05T10:02:31.247Z,12792.00
2022-11-05T10:03:31.234Z,9424.00
2022-11-05T10:04:31.219Z,5660.00
2022-11-05T10:05:31.211Z,13752.00
2022-11-05T10:06:31.198Z,13104.00
2022-11-05T10:07:31.185Z,15488.00
2022-11-05T10:08:31.188Z,15328.00
2022-11-05T10:09:31.138Z,15712.00
2022-11-05T10:10:32.481Z,16128.00
2022-11-05T10:11:31.132Z,16416.00
2022-11-05T10:12:31.110Z,16928.00
2022-11-05T10:13:31.106Z,17376.00
2022-11-05T10:14:31.085Z,17728.00
2022-11-05T10:15:31.083Z,18016.00
2022-11-05T10:16:31.065Z,18048.00
2022-11-05T10:17:34.985Z,17984.00
2022-11-05T10:18:31.062Z,17888.00
2022-11-05T10:19:31.045Z,17984.00
2022-11-05T10:20:31.028Z,17920.00
2022-11-05T10:21:59.547Z,17696.00
2022-11-05T10:22:31.018Z,17664.00
2022-11-05T10:23:30.985Z,17472.00
2022-11-05T10:24:31.017Z,17280.00
2022-11-05T10:25:31.033Z,17280.00
2022-11-05T10:26:30.980Z,17280.00
2022-11-05T10:27:30.955Z,17152.00
2022-11-05T10:28:30.957Z,17248.00
2022-11-05T10:29:30.935Z,17344.00
2022-11-05T10:30:30.976Z,17472.00
2022-11-05T10:31:35.274Z,17280.00
2022-11-05T10:32:30.904Z,17472.00
2022-11-05T10:33:30.890Z,17216.00
2022-11-05T10:34:30.877Z,17120.00
2022-11-05T10:35:30.858Z,16640.00
2022-11-05T10:36:30.884Z,18400.00
2022-11-05T10:37:30.848Z,18368.00
2022-11-05T10:38:30.841Z,18784.00
2022-11-05T10:39:30.865Z,19744.00
2022-11-05T10:40:30.808Z,17600.00
2022-11-05T10:41:30.825Z,19424.00
2022-11-05T10:42:37.306Z,20704.00
2022-11-05T10:43:30.815Z,16896.00
2022-11-05T10:44:30.782Z,23264.00
2022-11-05T10:45:30.807Z,18496.00
2022-11-05T10:46:30.740Z,19456.00
2022-11-05T10:47:30.754Z,18560.00
2022-11-05T10:48:30.721Z,18656.00
2022-11-05T10:49:30.717Z,15060.00
2022-11-05T10:50:30.728Z,17184.00
2022-11-05T10:51:30.693Z,18464.00
2022-11-05T10:52:30.687Z,16288.00
2022-11-05T10:53:30.687Z,17376.00
2022-11-05T10:54:30.669Z,17504.00
2022-11-05T10:55:30.656Z,16672.00
2022-11-05T10:56:30.622Z,16256.00
2022-11-05T10:57:30.633Z,16256.00
2022-11-05T10:58:30.644Z,15568.00
2022-11-05T10:59:30.621Z,15744.00
2022-11-05T11:00:30.593Z,14056.00
2022-11-05T11:01:30.762Z,14220.00
2022-11-05T11:02:30.662Z,12276.00
2022-11-05T11:03:30.551Z,11624.00
2022-11-05T11:04:36.563Z,12096.00
2022-11-05T11:05:30.643Z,12588.00
2022-11-05T11:06:30.556Z,12444.00
2022-11-05T11:07:30.501Z,12832.00
2022-11-05T11:08:30.504Z,14220.00
2022-11-05T11:09:30.525Z,15520.00
2022-11-05T11:10:30.480Z,14012.00
2022-11-05T11:11:30.500Z,13976.00
2022-11-05T11:12:30.500Z,14608.00
2022-11-05T11:13:30.478Z,13692.00
2022-11-05T11:14:30.486Z,13492.00
2022-11-05T11:15:30.448Z,13924.00
2022-11-05T11:16:30.416Z,13304.00
2022-11-05T11:17:30.408Z,16032.00
2022-11-05T11:18:32.432Z,17824.00
2022-11-05T11:19:30.474Z,17376.00
2022-11-05T11:20:30.375Z,17376.00
2022-11-05T11:21:30.372Z,19040.00
2022-11-05T11:23:41.061Z,21088.00
2022-11-05T11:24:42.026Z,20000.00
2022-11-05T11:25:42.000Z,20832.00
2022-11-05T11:26:41.982Z,19616.00
2022-11-05T11:27:41.970Z,19392.00
2022-11-05T11:28:41.984Z,19200.00
2022-11-05T11:29:45.196Z,17984.00
2022-11-05T11:30:41.940Z,18368.00
2022-11-05T11:31:41.964Z,20768.00
2022-11-05T11:32:41.930Z,17280.00
2022-11-05T11:33:41.908Z,20448.00
2022-11-05T11:34:41.898Z,16512.00
2022-11-05T11:35:41.896Z,12356.00
2022-11-05T11:36:41.884Z,11288.00
2022-11-05T11:37:41.923Z,10892.00
2022-11-05T11:38:41.856Z,11484.00
2022-11-05T11:39:41.847Z,12960.00
2022-11-05T11:40:41.845Z,12404.00
2022-11-05T11:41:41.857Z,10564.00
2022-11-05T11:42:41.795Z,10124.00
2022-11-05T11:43:41.808Z,9788.00
2022-11-05T11:44:41.781Z,10096.00
2022-11-05T11:45:41.782Z,10404.00
2022-11-05T11:46:41.770Z,9560.00
2022-11-05T11:47:41.748Z,10972.00
2022-11-05T11:48:41.766Z,12584.00
2022-11-05T11:49:41.733Z,14412.00
2022-11-05T11:50:41.744Z,13512.00
2022-11-05T11:51:41.711Z,11624.00
2022-11-05T11:52:41.695Z,12588.00
2022-11-05T11:53:41.685Z,11864.00
2022-11-05T11:54:41.663Z,13700.00
2022-11-05T11:55:41.728Z,14080.00
2022-11-05T11:56:41.639Z,14944.00
2022-11-05T11:57:41.653Z,16672.00
2022-11-05T11:58:41.665Z,16512.00
2022-11-05T12:00:07.050Z,15208.00
2022-11-05T12:00:41.632Z,14780.00
2022-11-05T12:01:41.709Z,14792.00
2022-11-05T12:02:41.750Z,14516.00
2022-11-05T12:03:41.574Z,13504.00
2022-11-05T12:04:41.554Z,13296.00
2022-11-05T12:05:41.588Z,13488.00
2022-11-05T12:06:41.558Z,13284.00
2022-11-05T12:07:41.539Z,13536.00
2022-11-05T12:08:45.347Z,13628.00
2022-11-05T12:09:41.499Z,14224.00
2022-11-05T12:10:41.515Z,19168.00
2022-11-05T12:11:41.485Z,25408.00
2022-11-05T12:12:41.480Z,29952.00
2022-11-05T12:13:41.479Z,29792.00
2022-11-05T12:14:46.264Z,26976.00
2022-11-05T12:15:41.448Z,20416.00
2022-11-05T12:16:41.492Z,19328.00
2022-11-05T12:17:41.418Z,18656.00
2022-11-05T12:18:41.397Z,18432.00
2022-11-05T12:19:41.411Z,18528.00
2022-11-05T12:20:41.385Z,18368.00
2022-11-05T12:21:52.615Z,18112.00
2022-11-05T12:22:41.394Z,17824.00
2022-11-05T12:23:41.343Z,17504.00
2022-11-05T12:24:41.345Z,17920.00
2022-11-05T12:25:41.329Z,18976.00
2022-11-05T12:26:41.317Z,18720.00
2022-11-05T12:27:41.362Z,19008.00
2022-11-05T12:29:04.797Z,18240.00
2022-11-05T12:29:41.316Z,18048.00
2022-11-05T12:30:41.283Z,17536.00
2022-11-05T12:31:41.251Z,17216.00
2022-11-05T12:32:47.869Z,17696.00
2022-11-05T12:33:41.250Z,16896.00
2022-11-05T12:34:41.256Z,17056.00
2022-11-05T12:35:46.722Z,15684.00
2022-11-05T12:36:41.226Z,14872.00